createdAt,value
2018-12-27T00:01:46.601Z,80.30
2018-12-27T00:04:15.097Z,80.10
2018-12-27T00:06:43.540Z,79.80
2018-12-27T00:09:12.018Z,79.20
2018-12-27T00:11:40.457Z,80.00
2018-12-27T00:14:09.147Z,82.10
2018-12-27T00:16:37.673Z,82.40
2018-12-27T00:19:06.530Z,81.00
2018-12-27T00:21:35.023Z,80.10
2018-12-27T00:24:03.505Z,81.20
2018-12-27T00:26:31.994Z,80.40
2018-12-27T00:29:00.530Z,80.20
2018-12-27T00:31:29.179Z,76.70
2018-12-27T00:33:57.770Z,75.20
2018-12-27T00:36:26.358Z,75.80
2018-12-27T00:38:55.638Z,75.90
2018-12-27T00:41:24.254Z,76.50
2018-12-27T00:43:52.858Z,75.10
2018-12-27T00:46:21.490Z,77.20
2018-12-27T00:48:50.082Z,78.00
2018-12-27T00:51:19.010Z,78.80
2018-12-27T00:53:47.649Z,78.30
2018-12-27T00:56:16.241Z,78.20
2018-12-27T00:58:44.830Z,78.10
2018-12-27T01:01:13.689Z,78.40
2018-12-27T01:03:42.313Z,78.50
2018-12-27T01:06:11.226Z,78.60
2018-12-27T01:08:40.733Z,78.30
2018-12-27T01:11:09.341Z,76.30
2018-12-27T01:13:37.945Z,75.50
2018-12-27T01:16:06.553Z,75.00
2018-12-27T01:18:35.149Z,76.40
2018-12-27T01:21:03.750Z,75.20
2018-12-27T01:23:32.385Z,74.90
2018-12-27T01:26:00.978Z,73.60
2018-12-27T01:28:29.581Z,73.10
2018-12-27T01:30:58.202Z,74.70
2018-12-27T01:33:26.797Z,73.70
2018-12-27T01:35:55.962Z,73.50
2018-12-27T01:38:24.585Z,73.00
2018-12-27T01:40:53.185Z,75.00
2018-12-27T01:43:21.854Z,76.10
2018-12-27T01:45:51.070Z,76.00
2018-12-27T01:48:19.662Z,74.80
2018-12-27T01:50:50.145Z,75.60
2018-12-27T01:53:19.128Z,75.70
2018-12-27T01:55:48.839Z,77.00
2018-12-27T01:58:17.658Z,77.20
2018-12-27T02:00:46.666Z,78.10
2018-12-27T02:03:15.842Z,78.30
2018-12-27T02:05:44.525Z,78.30
2018-12-27T02:08:13.201Z,78.20
2018-12-27T02:10:41.966Z,78.50
2018-12-27T02:13:10.558Z,79.00
2018-12-27T02:15:39.446Z,79.00
2018-12-27T02:18:08.033Z,79.00
2018-12-27T02:20:36.926Z,77.60
2018-12-27T02:23:05.612Z,77.10
2018-12-27T02:25:34.770Z,76.90
2018-12-27T02:28:03.361Z,76.80
2018-12-27T02:30:32.020Z,75.30
2018-12-27T02:33:00.853Z,74.90
2018-12-27T02:35:29.746Z,74.70
2018-12-27T02:37:58.403Z,75.50
2018-12-27T02:40:27.018Z,73.00
2018-12-27T02:42:55.634Z,73.10
2018-12-27T02:45:24.485Z,74.00
2018-12-27T02:47:53.675Z,73.00
2018-12-27T02:50:22.265Z,71.00
2018-12-27T02:52:50.864Z,70.50
2018-12-27T02:55:19.474Z,70.80
2018-12-27T02:57:48.327Z,74.70
2018-12-27T03:00:17.034Z,76.00
2018-12-27T03:02:45.719Z,75.20
2018-12-27T03:05:14.309Z,76.10
2018-12-27T03:07:42.911Z,76.10
2018-12-27T03:10:12.155Z,77.40
2018-12-27T03:12:40.755Z,78.10
2018-12-27T03:15:09.350Z,78.60
2018-12-27T03:17:38.636Z,77.90
2018-12-27T03:20:07.226Z,77.40
2018-12-27T03:22:36.822Z,75.80
2018-12-27T03:25:05.433Z,76.10
2018-12-27T03:27:34.046Z,76.80
2018-12-27T03:30:02.657Z,75.80
2018-12-27T03:32:31.342Z,76.00
2018-12-27T03:34:59.930Z,76.20
2018-12-27T03:37:28.533Z,76.50
2018-12-27T03:39:57.154Z,75.00
2018-12-27T03:42:25.747Z,76.10
2018-12-27T03:44:54.340Z,76.00
2018-12-27T03:47:22.968Z,75.70
2018-12-27T03:49:51.614Z,74.90
2018-12-27T03:52:20.228Z,72.90
2018-12-27T03:54:48.886Z,74.00
2018-12-27T03:57:18.132Z,71.30
2018-12-27T03:59:47.557Z,71.20
2018-12-27T04:02:16.720Z,71.30
2018-12-27T04:04:45.799Z,72.60
2018-12-27T04:07:14.561Z,73.30
2018-12-27T04:09:43.213Z,71.50
2018-12-27T04:12:12.101Z,69.90
2018-12-27T04:14:40.764Z,70.10
2018-12-27T04:17:09.473Z,71.70
2018-12-27T04:19:38.021Z,72.40
2018-12-27T04:22:06.544Z,69.70
2018-12-27T04:24:36.097Z,70.40
2018-12-27T04:27:05.310Z,71.30
2018-12-27T04:29:33.882Z,69.20
2018-12-27T04:32:02.870Z,68.10
2018-12-27T04:34:31.741Z,68.70
2018-12-27T04:37:00.629Z,70.00
2018-12-27T04:39:29.311Z,71.40
2018-12-27T04:41:59.329Z,71.20
2018-12-27T04:44:28.404Z,70.20
2018-12-27T04:46:57.922Z,70.10
2018-12-27T04:49:26.710Z,69.90
2018-12-27T04:51:55.365Z,68.00
2018-12-27T04:54:23.975Z,65.90
2018-12-27T04:56:52.505Z,66.00
2018-12-27T04:59:22.658Z,67.70
2018-12-27T05:01:51.226Z,69.80
2018-12-27T05:04:19.722Z,67.20
2018-12-27T05:06:48.173Z,68.40
2018-12-27T05:09:16.681Z,66.70
2018-12-27T05:11:45.195Z,65.00
2018-12-27T05:14:14.076Z,65.30
2018-12-27T05:16:42.542Z,69.90
2018-12-27T05:19:11.003Z,72.30
2018-12-27T05:21:39.645Z,73.20
2018-12-27T05:24:08.103Z,72.60
2018-12-27T05:26:36.634Z,72.90
2018-12-27T05:29:05.071Z,72.70
2018-12-27T05:31:33.506Z,72.90
2018-12-27T05:34:02.036Z,72.60
2018-12-27T05:36:30.469Z,72.10
2018-12-27T05:38:58.917Z,71.20
2018-12-27T05:41:27.721Z,70.20
2018-12-27T05:43:56.534Z,68.70
2018-12-27T05:46:25.082Z,70.40
2018-12-27T05:48:53.602Z,71.00
2018-12-27T05:51:22.034Z,72.30
2018-12-27T05:53:50.478Z,71.60
2018-12-27T05:56:18.970Z,67.10
2018-12-27T05:58:47.407Z,68.00
2018-12-27T06:01:15.844Z,67.00
2018-12-27T06:03:44.311Z,66.10
2018-12-27T06:06:12.744Z,68.50
2018-12-27T06:08:41.194Z,69.70
2018-12-27T06:11:09.731Z,70.20
2018-12-27T06:13:38.177Z,69.70
2018-12-27T06:16:06.630Z,71.10
2018-12-27T06:18:35.090Z,71.70
2018-12-27T06:21:03.521Z,74.20
2018-12-27T06:23:32.201Z,73.10
2018-12-27T06:26:00.657Z,73.40
2018-12-27T06:28:29.202Z,73.70
2018-12-27T06:30:57.638Z,73.10
2018-12-27T06:33:26.093Z,72.50
2018-12-27T06:35:54.522Z,72.80
2018-12-27T06:38:22.955Z,73.20
2018-12-27T06:40:51.416Z,72.70
2018-12-27T06:43:19.849Z,72.10
2018-12-27T06:45:48.283Z,71.80
2018-12-27T06:48:16.758Z,70.80
2018-12-27T06:50:45.209Z,66.70
2018-12-27T06:53:13.659Z,63.40
2018-12-27T06:55:42.454Z,65.00
2018-12-27T06:58:10.885Z,67.90
2018-12-27T07:00:39.362Z,61.80
2018-12-27T07:03:07.822Z,62.00
2018-12-27T07:05:36.257Z,63.50
2018-12-27T07:08:04.705Z,66.10
2018-12-27T07:10:33.181Z,66.30
2018-12-27T07:13:02.885Z,64.40
2018-12-27T07:15:31.742Z,60.80
2018-12-27T07:18:00.165Z,58.60
2018-12-27T07:20:28.626Z,59.30
2018-12-27T07:22:57.061Z,63.70
2018-12-27T07:25:25.590Z,67.80
2018-12-27T07:27:54.050Z,66.10
2018-12-27T07:30:22.514Z,66.60
2018-12-27T07:32:51.305Z,62.20
2018-12-27T07:35:19.763Z,60.90
2018-12-27T07:37:48.198Z,61.70
2018-12-27T07:40:16.638Z,64.10
2018-12-27T07:42:45.433Z,61.30
2018-12-27T07:45:14.069Z,64.20
2018-12-27T07:47:42.510Z,64.50
2018-12-27T07:50:10.986Z,65.40
2018-12-27T07:52:39.489Z,67.30
2018-12-27T07:55:08.009Z,69.00
2018-12-27T07:57:36.830Z,70.80
2018-12-27T08:00:06.745Z,70.40
2018-12-27T08:02:35.180Z,68.40
2018-12-27T08:05:04.566Z,69.60
2018-12-27T08:07:33.417Z,69.50
2018-12-27T08:10:01.957Z,70.00
2018-12-27T08:12:30.395Z,69.40
2018-12-27T08:14:59.050Z,73.30
2018-12-27T08:17:27.557Z,72.40
2018-12-27T08:19:56.037Z,70.60
2018-12-27T08:22:24.537Z,72.90
2018-12-27T08:24:53.054Z,71.80
2018-12-27T08:27:21.593Z,72.00
2018-12-27T08:29:50.033Z,62.00
2018-12-27T08:32:18.476Z,62.30
2018-12-27T08:34:46.931Z,64.10
2018-12-27T08:37:15.447Z,61.90
2018-12-27T08:39:43.889Z,56.80
2018-12-27T08:42:12.711Z,50.50
2018-12-27T08:44:41.301Z,48.30
2018-12-27T08:47:09.744Z,48.20
2018-12-27T08:49:38.523Z,39.80
2018-12-27T08:52:07.130Z,44.60
2018-12-27T08:54:35.613Z,44.10
2018-12-27T08:57:04.082Z,42.60
2018-12-27T08:59:34.173Z,45.50
2018-12-27T09:02:02.610Z,32.20
2018-12-27T09:04:31.120Z,37.00
2018-12-27T09:06:59.654Z,43.60
2018-12-27T09:09:28.121Z,37.30
2018-12-27T09:11:56.796Z,41.90
2018-12-27T09:14:25.233Z,35.30
2018-12-27T09:16:53.712Z,30.10
2018-12-27T09:19:22.142Z,38.20
2018-12-27T09:21:50.659Z,34.70
2018-12-27T09:24:19.237Z,33.70
2018-12-27T09:26:47.682Z,33.10
2018-12-27T09:29:16.182Z,19.80
2018-12-27T09:31:44.639Z,30.20
2018-12-27T09:34:13.067Z,23.80
2018-12-27T09:36:41.533Z,25.70
2018-12-27T09:39:09.998Z,40.40
2018-12-27T09:41:38.446Z,43.60
2018-12-27T09:44:07.196Z,45.30
2018-12-27T09:46:35.643Z,11.40
2018-12-27T09:49:04.078Z,31.40
2018-12-27T09:51:32.519Z,35.10
2018-12-27T09:54:00.966Z,28.70
2018-12-27T09:56:29.402Z,17.10
2018-12-27T09:58:57.834Z,31.10
2018-12-27T10:01:26.301Z,26.10
2018-12-27T10:03:54.729Z,26.80
2018-12-27T10:06:23.371Z,23.70
2018-12-27T10:08:51.993Z,18.20
2018-12-27T10:11:20.427Z,21.00
2018-12-27T10:13:48.873Z,11.00
2018-12-27T10:16:17.302Z,1.90
2018-12-27T10:18:46.074Z,1.00
2018-12-27T10:21:14.504Z,1.00
2018-12-27T10:23:42.930Z,1.00
2018-12-27T10:26:11.744Z,1.00
2018-12-27T10:28:40.234Z,1.00
2018-12-27T10:31:08.663Z,1.00
2018-12-27T10:33:37.111Z,1.00
2018-12-27T10:36:05.545Z,1.00
2018-12-27T10:38:33.969Z,1.00
2018-12-27T10:41:02.421Z,1.00
2018-12-27T10:43:30.850Z,1.00
2018-12-27T10:45:59.566Z,1.00
2018-12-27T10:48:28.015Z,1.00
2018-12-27T10:50:56.448Z,1.00
2018-12-27T10:53:24.944Z,1.00
2018-12-27T10:55:53.389Z,1.00
2018-12-27T10:58:22.073Z,1.00
2018-12-27T11:00:50.536Z,1.00
2018-12-27T11:03:19.102Z,1.00
2018-12-27T11:05:48.718Z,1.00
2018-12-27T11:08:17.551Z,1.00
2018-12-27T11:10:46.052Z,1.00
2018-12-27T11:13:14.498Z,1.00
2018-12-27T11:15:42.926Z,1.00
2018-12-27T11:18:11.406Z,1.00
2018-12-27T11:20:39.862Z,1.00
2018-12-27T11:23:08.293Z,1.00
2018-12-27T11:25:36.997Z,1.00
2018-12-27T11:28:05.438Z,1.00
2018-12-27T11:30:34.269Z,1.00
2018-12-27T11:33:02.718Z,1.00
2018-12-27T11:35:31.435Z,1.00
2018-12-27T11:37:59.953Z,1.00
2018-12-27T11:40:28.402Z,1.00
2018-12-27T11:42:56.865Z,1.00
2018-12-27T11:45:25.666Z,1.00
2018-12-27T11:47:54.109Z,1.00
2018-12-27T11:50:22.773Z,1.00
2018-12-27T11:52:51.214Z,1.00
2018-12-27T11:55:19.705Z,1.00
2018-12-27T11:57:48.263Z,1.00
2018-12-27T12:00:16.757Z,1.00
2018-12-27T12:02:45.542Z,1.00
2018-12-27T12:05:13.990Z,1.00
2018-12-27T12:07:42.434Z,1.00
2018-12-27T12:10:10.941Z,1.00
2018-12-27T12:12:39.670Z,1.00
2018-12-27T12:15:08.485Z,1.00
2018-12-27T12:17:36.906Z,1.00
2018-12-27T12:20:07.003Z,1.00
2018-12-27T12:22:35.428Z,1.00
2018-12-27T12:25:04.257Z,1.00
2018-12-27T12:27:32.713Z,1.00
2018-12-27T12:30:01.137Z,1.00
2018-12-27T12:32:29.638Z,1.00
2018-12-27T12:34:58.117Z,1.00
2018-12-27T12:37:27.344Z,1.00
2018-12-27T12:39:55.874Z,1.00
2018-12-27T12:42:32.701Z,1.00
2018-12-27T12:44:54.471Z,1.00
2018-12-27T12:47:22.907Z,1.00
2018-12-27T12:49:51.362Z,1.00
2018-12-27T12:52:19.901Z,1.00
2018-12-27T12:54:48.350Z,1.00
2018-12-27T12:57:16.843Z,1.00
2018-12-27T12:59:45.326Z,1.00
2018-12-27T13:02:13.825Z,1.00
2018-12-27T13:04:42.332Z,1.00
2018-12-27T13:07:10.766Z,99.90
2018-12-27T13:09:39.241Z,99.90
2018-12-27T13:12:07.769Z,1.00
2018-12-27T13:14:36.205Z,99.90
2018-12-27T13:17:04.801Z,99.90
2018-12-27T13:19:33.279Z,99.90
2018-12-27T13:22:02.258Z,99.90
2018-12-27T13:24:30.770Z,99.90
2018-12-27T13:26:59.218Z,99.90
2018-12-27T13:29:27.641Z,1.00
2018-12-27T13:31:56.110Z,99.90
2018-12-27T13:34:24.561Z,99.90
2018-12-27T13:36:53.064Z,99.90
2018-12-27T13:39:21.843Z,99.90
2018-12-27T13:41:50.351Z,20.30
2018-12-27T13:44:18.774Z,99.90
2018-12-27T13:46:47.205Z,99.90
2018-12-27T13:49:15.689Z,1.00
2018-12-27T13:51:44.187Z,1.00
2018-12-27T13:54:13.561Z,99.90
2018-12-27T13:56:42.100Z,1.00
2018-12-27T13:59:10.586Z,99.90
2018-12-27T14:01:39.090Z,99.90
2018-12-27T14:04:07.610Z,99.90
2018-12-27T14:06:36.073Z,99.90
2018-12-27T14:09:06.062Z,99.90
2018-12-27T14:11:34.494Z,99.90
2018-12-27T14:14:02.953Z,99.90
2018-12-27T14:16:33.310Z,99.90
2018-12-27T14:19:02.282Z,99.90
2018-12-27T14:21:32.625Z,99.90
2018-12-27T14:24:02.828Z,99.90
2018-12-27T14:26:31.813Z,1.00
2018-12-27T14:29:02.419Z,1.00
2018-12-27T14:31:31.183Z,1.00
2018-12-27T14:34:01.491Z,1.00
2018-12-27T14:36:31.595Z,1.00
2018-12-27T14:39:01.119Z,1.00
2018-12-27T14:41:30.826Z,1.00
2018-12-27T14:43:59.894Z,1.00
2018-12-27T14:46:29.856Z,1.00
2018-12-27T14:48:58.713Z,1.00
2018-12-27T14:51:27.522Z,1.00
2018-12-27T14:53:56.210Z,1.00
2018-12-27T14:56:25.273Z,1.00
2018-12-27T14:58:54.160Z,1.00
2018-12-27T15:01:22.585Z,1.00
2018-12-27T15:03:52.477Z,1.00
2018-12-27T15:06:21.020Z,1.00
2018-12-27T15:08:49.856Z,1.00
2018-12-27T15:11:18.315Z,1.00
2018-12-27T15:13:46.837Z,1.00
2018-12-27T15:16:15.449Z,1.00
2018-12-27T15:18:44.731Z,1.00
2018-12-27T15:21:13.519Z,1.00
2018-12-27T15:23:42.289Z,1.00
2018-12-27T15:26:11.320Z,1.00
2018-12-27T15:28:40.706Z,1.00
2018-12-27T15:31:09.270Z,1.00
2018-12-27T15:33:38.187Z,1.00
2018-12-27T15:36:06.889Z,1.00
2018-12-27T15:38:35.376Z,1.00
2018-12-27T15:41:03.954Z,1.00
2018-12-27T15:43:32.389Z,1.00
2018-12-27T15:46:00.893Z,1.00
2018-12-27T15:48:29.658Z,1.00
2018-12-27T15:50:58.078Z,5.60
2018-12-27T15:53:26.823Z,3.70
2018-12-27T15:55:55.270Z,2.60
2018-12-27T15:58:23.731Z,1.20
2018-12-27T16:00:52.285Z,1.20
2018-12-27T16:03:20.737Z,2.40
2018-12-27T16:05:49.166Z,3.50
2018-12-27T16:08:17.683Z,6.40
2018-12-27T16:10:46.134Z,8.30
2018-12-27T16:13:14.566Z,11.30
2018-12-27T16:15:43.021Z,15.80
2018-12-27T16:18:11.518Z,18.50
2018-12-27T16:20:39.946Z,26.20
2018-12-27T16:23:08.382Z,27.50
2018-12-27T16:25:36.834Z,31.40
2018-12-27T16:28:05.286Z,32.70
2018-12-27T16:30:33.789Z,36.20
2018-12-27T16:33:02.246Z,39.30
2018-12-27T16:35:30.974Z,40.20
2018-12-27T16:37:59.407Z,41.70
2018-12-27T16:40:28.207Z,42.20
2018-12-27T16:42:56.642Z,44.30
2018-12-27T16:45:25.165Z,46.50
2018-12-27T16:47:53.702Z,45.40
2018-12-27T16:50:22.398Z,47.70
2018-12-27T16:52:50.829Z,49.80
2018-12-27T16:55:19.283Z,50.90
2018-12-27T16:57:47.770Z,55.30
2018-12-27T17:00:16.237Z,56.50
2018-12-27T17:02:44.690Z,59.50
2018-12-27T17:05:13.125Z,61.80
2018-12-27T17:07:41.601Z,64.00
2018-12-27T17:10:10.122Z,66.00
2018-12-27T17:12:38.550Z,64.50
2018-12-27T17:15:06.985Z,67.00
2018-12-27T17:17:35.438Z,67.60
2018-12-27T17:20:04.910Z,69.00
2018-12-27T17:22:33.345Z,71.00
2018-12-27T17:25:01.915Z,75.00
2018-12-27T17:27:32.142Z,75.90
2018-12-27T17:30:00.583Z,75.20
2018-12-27T17:32:29.050Z,76.40
2018-12-27T17:34:57.490Z,77.00
2018-12-27T17:37:26.194Z,78.20
2018-12-27T17:39:54.660Z,80.30
2018-12-27T17:42:23.362Z,81.40
2018-12-27T17:44:51.805Z,82.40
2018-12-27T17:47:20.273Z,82.30
2018-12-27T17:49:49.226Z,80.40
2018-12-27T17:52:17.690Z,77.90
2018-12-27T17:54:46.237Z,77.30
2018-12-27T17:57:14.676Z,80.40
2018-12-27T17:59:43.193Z,80.80
2018-12-27T18:02:11.660Z,81.80
2018-12-27T18:04:40.134Z,81.50
2018-12-27T18:07:08.580Z,81.20
2018-12-27T18:09:37.046Z,80.50
2018-12-27T18:12:05.751Z,78.40
2018-12-27T18:14:34.202Z,78.00
2018-12-27T18:17:02.670Z,76.50
2018-12-27T18:19:31.109Z,76.40
2018-12-27T18:22:00.629Z,77.10
2018-12-27T18:24:29.097Z,76.80
2018-12-27T18:26:57.542Z,76.40
2018-12-27T18:29:26.186Z,76.30
2018-12-27T18:31:54.730Z,76.00
2018-12-27T18:34:23.170Z,76.00
2018-12-27T18:36:51.606Z,76.00
2018-12-27T18:39:20.154Z,76.40
2018-12-27T18:41:48.589Z,76.70
2018-12-27T18:44:17.029Z,76.60
2018-12-27T18:46:45.497Z,76.60
2018-12-27T18:49:20.516Z,77.60
2018-12-27T18:51:44.341Z,79.60
2018-12-27T18:54:12.812Z,81.60
2018-12-27T18:56:41.349Z,80.20
2018-12-27T18:59:09.790Z,79.00
2018-12-27T19:01:38.254Z,79.20
2018-12-27T19:04:06.690Z,79.50
2018-12-27T19:06:35.129Z,79.80
2018-12-27T19:09:05.390Z,80.60
2018-12-27T19:12:10.624Z,81.40
2018-12-27T19:14:39.426Z,81.10
2018-12-27T19:17:11.041Z,81.70
2018-12-27T19:19:39.506Z,83.90
2018-12-27T19:22:08.214Z,86.90
2018-12-27T19:24:36.658Z,87.00
2018-12-27T19:27:05.187Z,86.40
2018-12-27T19:29:33.913Z,86.70
2018-12-27T19:32:02.802Z,86.80
2018-12-27T19:34:32.464Z,86.50
2018-12-27T19:37:00.912Z,86.20
2018-12-27T19:39:29.362Z,86.80
2018-12-27T19:41:57.854Z,85.20
2018-12-27T19:44:26.307Z,83.40
2018-12-27T19:46:54.850Z,82.90
2018-12-27T19:49:23.609Z,82.60
2018-12-27T19:51:52.396Z,82.70
2018-12-27T19:54:22.539Z,82.80
2018-12-27T19:56:51.502Z,82.60
2018-12-27T19:59:22.005Z,82.80
2018-12-27T20:01:50.818Z,81.40
2018-12-27T20:04:19.285Z,83.10
2018-12-27T20:06:48.319Z,82.70
2018-12-27T20:09:17.161Z,83.20
2018-12-27T20:11:45.845Z,80.40
2018-12-27T20:14:15.400Z,78.50
2018-12-27T20:16:44.025Z,82.00
2018-12-27T20:19:12.495Z,81.80
2018-12-27T20:21:41.045Z,83.00
2018-12-27T20:24:09.496Z,83.90
2018-12-27T20:26:38.310Z,82.30
2018-12-27T20:29:06.766Z,82.50
2018-12-27T20:31:35.201Z,81.60
2018-12-27T20:34:03.666Z,80.70
2018-12-27T20:36:32.440Z,78.70
2018-12-27T20:39:01.041Z,78.10
2018-12-27T20:41:29.738Z,80.40
2018-12-27T20:43:58.550Z,79.70
2018-12-27T20:46:27.231Z,81.60
2018-12-27T20:48:56.730Z,80.40
2018-12-27T20:51:25.190Z,78.80
2018-12-27T20:53:53.797Z,78.50
2018-12-27T20:56:23.508Z,78.10
2018-12-27T20:58:52.149Z,80.70
2018-12-27T21:01:20.778Z,81.60
2018-12-27T21:03:49.341Z,80.30
2018-12-27T21:06:17.831Z,81.10
2018-12-27T21:08:46.732Z,82.10
2018-12-27T21:11:15.326Z,81.70
2018-12-27T21:13:43.868Z,83.70
2018-12-27T21:16:15.850Z,85.60
2018-12-27T21:18:44.314Z,85.70
2018-12-27T21:21:12.755Z,85.70
2018-12-27T21:23:41.271Z,85.60
2018-12-27T21:26:09.806Z,87.30
2018-12-27T21:28:38.323Z,86.40
2018-12-27T21:31:06.826Z,83.90
2018-12-27T21:33:35.310Z,84.50
2018-12-27T21:36:03.829Z,84.60
2018-12-27T21:38:32.336Z,87.60
2018-12-27T21:41:00.794Z,87.70
2018-12-27T21:43:29.235Z,87.30
2018-12-27T21:45:57.851Z,85.80
2018-12-27T21:48:26.329Z,84.10
2018-12-27T21:50:54.770Z,81.70
2018-12-27T21:53:23.236Z,81.10
2018-12-27T21:55:51.702Z,79.30
2018-12-27T21:58:20.333Z,78.20
2018-12-27T22:00:48.775Z,77.00
2018-12-27T22:03:17.237Z,74.70
2018-12-27T22:05:45.694Z,81.50
2018-12-27T22:08:14.138Z,82.50
2018-12-27T22:10:42.881Z,81.00
2018-12-27T22:13:11.349Z,81.50
2018-12-27T22:15:39.969Z,82.70
2018-12-27T22:18:08.477Z,82.90
2018-12-27T22:20:36.945Z,83.20
2018-12-27T22:23:05.654Z,83.70
2018-12-27T22:25:34.465Z,84.20
2018-12-27T22:28:02.911Z,82.80
2018-12-27T22:30:31.354Z,82.90
2018-12-27T22:33:00.129Z,83.40
2018-12-27T22:35:28.566Z,83.30
2018-12-27T22:37:57.006Z,82.10
2018-12-27T22:40:25.462Z,82.50
2018-12-27T22:42:53.906Z,82.30
2018-12-27T22:45:22.364Z,82.00
2018-12-27T22:47:50.838Z,81.30
2018-12-27T22:50:19.274Z,80.50
2018-12-27T22:52:47.978Z,80.40
2018-12-27T22:55:16.445Z,80.00
2018-12-27T22:57:44.878Z,80.70
2018-12-27T23:00:18.170Z,80.60
2018-12-27T23:02:46.872Z,81.60
2018-12-27T23:05:15.310Z,81.40
2018-12-27T23:07:43.750Z,81.70
2018-12-27T23:10:12.286Z,82.30
2018-12-27T23:12:40.801Z,82.10
2018-12-27T23:15:09.241Z,83.30
2018-12-27T23:17:37.713Z,83.90
2018-12-27T23:20:06.150Z,84.70
2018-12-27T23:22:34.693Z,86.80
2018-12-27T23:25:03.303Z,88.30
2018-12-27T23:27:31.762Z,87.50
2018-12-27T23:30:00.238Z,88.90
2018-12-27T23:32:28.743Z,89.60
2018-12-27T23:34:57.183Z,88.90
2018-12-27T23:37:25.685Z,89.80
2018-12-27T23:39:54.149Z,89.90
2018-12-27T23:42:22.588Z,89.80
2018-12-27T23:44:51.029Z,89.60
2018-12-27T23:47:19.777Z,89.40
2018-12-27T23:49:48.278Z,88.80
2018-12-27T23:52:16.718Z,88.80
2018-12-27T23:54:45.186Z,87.00
2018-12-27T23:57:13.625Z,88.90
2018-12-27T23:59:42.175Z,89.10
